Data Viewer
| City | State | Eastern Time | Source | Temp | DewPt | RH | BP | 5 Min Precip | Wind Speed | Wind Dir | 5 Min Wind Max | 5 Min Wind Max Dir |
|---|---|---|---|---|---|---|---|---|---|---|---|---|
| Shirley | NY | 2026-05-09 04:15 | ASOS | 52 | 48 | 87 | 29.92 | 3 | S | |||
| Shirley | NY | 2026-05-09 10:15 | ASOS | 57 | 48 | 72 | 29.93 | 12 | SSW | |||
| Shirley | NY | 2026-05-09 22:05 | ASOS | 54 | 54 | 100 | 29.87 | 5 | SSE | |||
| Shirley | NY | 2026-05-09 14:50 | ASOS | 59 | 52 | 77 | 29.88 | 16 | SSW | |||
| Shirley | NY | 2026-05-09 11:15 | ASOS | 59 | 50 | 72 | 29.92 | 10 | S | |||
| Shirley | NY | 2026-05-09 11:05 | ASOS | 59 | 48 | 67 | 29.93 | 13 | SSW | |||
| Shirley | NY | 2026-05-09 11:00 | ASOS | 57 | 48 | 72 | 29.93 | 12 | SSW | |||
| Shirley | NY | 2026-05-09 10:50 | ASOS | 57 | 48 | 72 | 29.93 | 10 | SSW | |||
| Shirley | NY | 2026-05-09 10:40 | ASOS | 57 | 48 | 72 | 29.93 | 10 | SSW | |||
| Shirley | NY | 2026-05-09 10:25 | ASOS | 57 | 48 | 72 | 29.93 | 8 | SSW | |||
| Shirley | NY | 2026-05-09 10:05 | ASOS | 57 | 48 | 72 | 29.93 | 10 | SSW | |||
| Shirley | NY | 2026-05-10 02:13 | ASOS | 53 | 53 | 100 | 29.87 | 0 | N | |||
| Shirley | NY | 2026-05-09 09:50 | ASOS | 57 | 48 | 72 | 29.93 | 12 | SSW | |||
| Shirley | NY | 2026-05-09 09:40 | ASOS | 57 | 48 | 72 | 29.93 | 13 | SSW | |||
| Shirley | NY | 2026-05-09 09:25 | ASOS | 55 | 48 | 77 | 29.93 | 8 | SSW | |||
| Shirley | NY | 2026-05-09 09:15 | ASOS | 55 | 48 | 77 | 29.93 | 9 | SSW | |||
| Shirley | NY | 2026-05-09 09:10 | ASOS | 55 | 48 | 77 | 29.93 | 8 | SSW | |||
| Shirley | NY | 2026-05-09 09:05 | ASOS | 55 | 48 | 77 | 29.93 | 9 | S | |||
| Shirley | NY | 2026-05-09 08:56 | ASOS | 56 | 47 | 72 | 29.93 | 9 | SSW | |||
| Shirley | NY | 2026-05-09 08:55 | ASOS | 55 | 46 | 72 | 29.93 | 8 | SSW | |||
| Shirley | NY | 2026-05-09 08:50 | ASOS | 55 | 46 | 72 | 29.93 | 8 | SSW | |||
| Shirley | NY | 2026-05-10 01:38 | ASOS | 52 | 51 | 97 | 29.87 | 0 | N | |||
| Shirley | NY | 2026-05-10 02:15 | ASOS | 54 | 54 | 100 | 29.87 | 0 | N | |||
| Shirley | NY | 2026-05-09 08:25 | ASOS | 57 | 46 | 67 | 29.93 | 10 | SSW | |||
| Shirley | NY | 2026-05-10 03:10 | ASOS | 54 | 52 | 94 | 29.87 | 0 | N | |||
| Shirley | NY | 2026-05-10 03:55 | ASOS | 54 | 52 | 94 | 29.88 | 0 | N | |||
| Shirley | NY | 2026-05-10 03:50 | ASOS | 54 | 54 | 100 | 29.88 | 0 | N | |||
| Shirley | NY | 2026-05-10 03:45 | ASOS | 54 | 54 | 100 | 29.88 | 0 | N | |||
| Shirley | NY | 2026-05-10 03:40 | ASOS | 54 | 52 | 94 | 29.88 | 0 | N | |||
| Shirley | NY | 2026-05-10 03:35 | ASOS | 54 | 52 | 94 | 29.88 | 0 | N | |||
| Shirley | NY | 2026-05-10 03:30 | ASOS | 54 | 52 | 94 | 29.87 | 0 | N | |||
| Shirley | NY | 2026-05-10 03:25 | ASOS | 54 | 52 | 94 | 29.87 | 0 | N | |||
| Shirley | NY | 2026-05-10 03:20 | ASOS | 54 | 52 | 94 | 29.87 | 0 | N | |||
| Shirley | NY | 2026-05-10 03:15 | ASOS | 54 | 52 | 94 | 29.87 | 0 | N | |||
| Shirley | NY | 2026-05-10 03:05 | ASOS | 54 | 52 | 94 | 29.87 | 0 | N | |||
| Shirley | NY | 2026-05-10 02:20 | ASOS | 54 | 54 | 100 | 29.87 | 5 | WNW | |||
| Shirley | NY | 2026-05-10 03:00 | ASOS | 54 | 54 | 100 | 29.87 | 0 | N | |||
| Shirley | NY | 2026-05-10 02:56 | ASOS | 53 | 52 | 96 | 29.87 | 0 | N | |||
| Shirley | NY | 2026-05-10 02:55 | ASOS | 54 | 52 | 94 | 29.87 | 0 | N | |||
| Shirley | NY | 2026-05-10 02:50 | ASOS | 54 | 52 | 94 | 29.87 | 0 | N | |||
| Shirley | NY | 2026-05-10 02:45 | ASOS | 54 | 54 | 100 | 29.87 | 0 | N | |||
| Shirley | NY | 2026-05-10 02:40 | ASOS | 54 | 54 | 100 | 29.87 | 0 | N | |||
| Shirley | NY | 2026-05-10 02:35 | ASOS | 54 | 52 | 94 | 29.87 | 0 | N | |||
| Shirley | NY | 2026-05-10 02:30 | ASOS | 54 | 54 | 100 | 29.87 | 0 | N | |||
| Shirley | NY | 2026-05-10 02:25 | ASOS | 54 | 52 | 94 | 29.87 | 0 | N | |||
| Shirley | NY | 2026-05-09 08:40 | ASOS | 55 | 46 | 72 | 29.93 | 7 | SSW | |||
| Shirley | NY | 2026-05-09 08:20 | ASOS | 57 | 46 | 67 | 29.93 | 10 | SSW | |||
| Shirley | NY | 2026-05-09 04:20 | ASOS | 52 | 48 | 87 | 29.92 | 5 | S | |||
| Shirley | NY | 2026-05-09 05:10 | ASOS | 52 | 48 | 87 | 29.91 | 0 | N | |||
| Shirley | NY | 2026-05-09 05:56 | ASOS | 52 | 49 | 89 | 29.92 | 3 | S | |||
| Shirley | NY | 2026-05-09 05:50 | ASOS | 52 | 48 | 87 | 29.92 | 0 | N | |||
| Shirley | NY | 2026-05-09 05:45 | ASOS | 52 | 48 | 87 | 29.91 | 3 | S | |||
| Shirley | NY | 2026-05-09 05:40 | ASOS | 52 | 48 | 87 | 29.91 | 5 | S | |||
| Shirley | NY | 2026-05-09 05:35 | ASOS | 54 | 48 | 82 | 29.92 | 5 | S | |||
| Shirley | NY | 2026-05-09 05:30 | ASOS | 52 | 48 | 87 | 29.92 | 3 | SSW | |||
| Shirley | NY | 2026-05-09 05:25 | ASOS | 52 | 48 | 87 | 29.92 | 6 | S | |||
| Shirley | NY | 2026-05-09 05:20 | ASOS | 52 | 48 | 87 | 29.92 | 3 | SSE | |||
| Shirley | NY | 2026-05-09 05:15 | ASOS | 52 | 48 | 87 | 29.91 | 0 | N | |||
| Shirley | NY | 2026-05-09 05:05 | ASOS | 52 | 48 | 87 | 29.91 | 0 | N | |||
| Shirley | NY | 2026-05-09 06:05 | ASOS | 52 | 48 | 87 | 29.92 | 3 | S | |||
| Shirley | NY | 2026-05-09 05:00 | ASOS | 52 | 48 | 87 | 29.91 | 0 | N | |||
| Shirley | NY | 2026-05-09 04:56 | ASOS | 52 | 49 | 89 | 29.92 | 0 | N | |||
| Shirley | NY | 2026-05-09 04:55 | ASOS | 52 | 48 | 87 | 29.92 | 0 | N | |||
| Shirley | NY | 2026-05-09 04:50 | ASOS | 52 | 48 | 87 | 29.92 | 0 | N | |||
| Shirley | NY | 2026-05-09 04:45 | ASOS | 52 | 48 | 87 | 29.92 | 0 | N | |||
| Shirley | NY | 2026-05-09 04:40 | ASOS | 52 | 48 | 87 | 29.92 | 0 | N | |||
| Shirley | NY | 2026-05-09 04:35 | ASOS | 52 | 48 | 87 | 29.92 | 0 | N | |||
| Shirley | NY | 2026-05-09 04:30 | ASOS | 52 | 48 | 87 | 29.92 | 0 | N | |||
| Shirley | NY | 2026-05-09 04:25 | ASOS | 52 | 48 | 87 | 29.92 | 3 | S | |||
| Shirley | NY | 2026-05-09 06:00 | ASOS | 52 | 48 | 87 | 29.92 | 0 | N | |||
| Shirley | NY | 2026-05-09 06:10 | ASOS | 52 | 48 | 87 | 29.92 | 5 | S | |||
| Shirley | NY | 2026-05-09 08:15 | ASOS | 57 | 46 | 67 | 29.93 | 12 | SSW | |||
| Shirley | NY | 2026-05-09 07:10 | ASOS | 54 | 48 | 82 | 29.93 | 6 | S | |||
| Shirley | NY | 2026-05-09 08:05 | ASOS | 55 | 46 | 72 | 29.93 | 13 | SSW | |||
| Shirley | NY | 2026-05-09 07:56 | ASOS | 56 | 48 | 75 | 29.93 | 9 | SSW | |||
| Shirley | NY | 2026-05-09 07:50 | ASOS | 55 | 48 | 77 | 29.94 | 7 | SSW | |||
| Shirley | NY | 2026-05-09 07:40 | ASOS | 54 | 48 | 82 | 29.93 | 6 | S | |||
| Shirley | NY | 2026-05-09 07:35 | ASOS | 54 | 48 | 82 | 29.94 | 6 | SSW | |||
| Shirley | NY | 2026-05-09 07:30 | ASOS | 54 | 48 | 82 | 29.94 | 5 | SSW | |||
| Shirley | NY | 2026-05-09 07:25 | ASOS | 54 | 48 | 82 | 29.94 | 5 | SSW | |||
| Shirley | NY | 2026-05-09 07:20 | ASOS | 54 | 48 | 82 | 29.93 | 7 | SSW | |||
| Shirley | NY | 2026-05-09 07:15 | ASOS | 54 | 48 | 82 | 29.93 | 7 | S | |||
| Shirley | NY | 2026-05-09 07:05 | ASOS | 54 | 48 | 82 | 29.94 | 6 | S | |||
| Shirley | NY | 2026-05-09 06:15 | ASOS | 52 | 48 | 87 | 29.92 | 3 | S | |||
| Shirley | NY | 2026-05-09 07:00 | ASOS | 54 | 48 | 82 | 29.93 | 6 | S | |||
| Shirley | NY | 2026-05-09 06:56 | ASOS | 53 | 48 | 83 | 29.93 | 6 | S | |||
| Shirley | NY | 2026-05-09 06:50 | ASOS | 54 | 48 | 82 | 29.93 | 6 | S | |||
| Shirley | NY | 2026-05-09 06:45 | ASOS | 54 | 48 | 82 | 29.93 | 6 | S | |||
| Shirley | NY | 2026-05-09 06:40 | ASOS | 54 | 48 | 82 | 29.93 | 6 | S | |||
| Shirley | NY | 2026-05-09 06:35 | ASOS | 54 | 48 | 82 | 29.93 | 6 | S | |||
| Shirley | NY | 2026-05-09 06:30 | ASOS | 54 | 48 | 82 | 29.92 | 5 | S | |||
| Shirley | NY | 2026-05-09 06:25 | ASOS | 54 | 48 | 82 | 29.92 | 6 | S | |||
| Shirley | NY | 2026-05-09 06:20 | ASOS | 52 | 48 | 87 | 29.92 | 6 | S | |||
| Shirley | NY | 2026-05-10 03:56 | ASOS | 53 | 52 | 96 | 29.88 | 0 | N |
data collection created in 0.02781081199646 (queried in 0.015053) rendered in: 0.00012922286987305

